createdAt,value
2023-04-19T00:00:20.756Z,48.20
2023-04-19T00:02:48.038Z,48.44
2023-04-19T00:05:15.738Z,48.33
2023-04-19T00:07:43.213Z,48.29
2023-04-19T00:10:10.879Z,48.38
2023-04-19T00:12:38.107Z,48.56
2023-04-19T00:15:06.834Z,48.72
2023-04-19T00:17:35.023Z,48.78
2023-04-19T00:20:02.343Z,48.87
2023-04-19T00:22:29.686Z,48.84
2023-04-19T00:24:56.880Z,48.64
2023-04-19T00:27:24.067Z,48.68
2023-04-19T00:29:51.417Z,48.66
2023-04-19T00:32:18.510Z,48.71
2023-04-19T00:34:45.797Z,48.84
2023-04-19T00:37:13.010Z,48.80
2023-04-19T00:39:40.296Z,49.02
2023-04-19T00:42:07.925Z,48.92
2023-04-19T00:44:35.094Z,49.16
2023-04-19T00:47:02.250Z,48.84
2023-04-19T00:49:30.492Z,49.18
2023-04-19T00:51:57.680Z,49.11
2023-04-19T00:54:25.815Z,48.90
2023-04-19T00:56:53.286Z,49.02
2023-04-19T00:59:21.385Z,49.39
2023-04-19T01:01:48.861Z,49.28
2023-04-19T01:04:17.512Z,48.96
2023-04-19T01:06:44.957Z,49.06
2023-04-19T01:09:12.187Z,48.83
2023-04-19T01:11:40.755Z,49.02
2023-04-19T01:14:09.129Z,49.09
2023-04-19T01:16:36.341Z,48.94
2023-04-19T01:19:04.680Z,49.14
2023-04-19T01:21:31.853Z,48.95
2023-04-19T01:23:59.034Z,48.99
2023-04-19T01:26:26.977Z,49.02
2023-04-19T01:28:54.532Z,48.69
2023-04-19T01:31:22.103Z,49.15
2023-04-19T01:33:49.348Z,48.97
2023-04-19T01:36:16.503Z,49.07
2023-04-19T01:38:43.950Z,49.18
2023-04-19T01:41:11.250Z,49.27
2023-04-19T01:43:38.392Z,49.34
2023-04-19T01:46:05.769Z,49.09
2023-04-19T01:48:32.950Z,49.11
2023-04-19T01:51:00.402Z,49.28
2023-04-19T01:53:27.601Z,48.97
2023-04-19T01:55:55.416Z,49.20
2023-04-19T01:58:22.739Z,49.18
2023-04-19T02:00:50.157Z,49.61
2023-04-19T02:03:17.610Z,49.40
2023-04-19T02:05:44.881Z,49.40
2023-04-19T02:08:12.020Z,49.10
2023-04-19T02:10:39.139Z,48.88
2023-04-19T02:13:06.329Z,48.92
2023-04-19T02:15:33.529Z,48.94
2023-04-19T02:18:00.656Z,49.31
2023-04-19T02:20:27.850Z,49.45
2023-04-19T02:22:55.059Z,49.18
2023-04-19T02:25:22.659Z,49.45
2023-04-19T02:27:50.045Z,49.57
2023-04-19T02:30:17.748Z,49.69
2023-04-19T02:32:44.965Z,49.90
2023-04-19T02:35:13.017Z,49.76
2023-04-19T02:37:40.267Z,49.53
2023-04-19T02:40:08.390Z,49.82
2023-04-19T02:42:35.797Z,49.76
2023-04-19T02:45:03.299Z,49.95
2023-04-19T02:47:30.505Z,49.79
2023-04-19T02:49:57.685Z,49.98
2023-04-19T02:52:27.319Z,50.01
2023-04-19T02:54:54.424Z,49.84
2023-04-19T02:57:21.528Z,50.26
2023-04-19T02:59:48.741Z,50.42
2023-04-19T03:02:15.995Z,50.22
2023-04-19T03:04:43.187Z,50.11
2023-04-19T03:07:10.537Z,49.70
2023-04-19T03:09:37.770Z,49.65
2023-04-19T03:12:07.265Z,50.03
2023-04-19T03:14:34.579Z,49.99
2023-04-19T03:17:02.068Z,50.04
2023-04-19T03:19:29.902Z,49.97
2023-04-19T03:21:57.590Z,49.65
2023-04-19T03:24:29.815Z,50.03
2023-04-19T03:27:00.011Z,49.99
2023-04-19T03:29:27.188Z,50.18
2023-04-19T03:31:54.331Z,50.07
2023-04-19T03:34:21.572Z,50.46
2023-04-19T03:36:48.905Z,50.53
2023-04-19T03:39:16.137Z,50.31
2023-04-19T03:41:43.461Z,50.34
2023-04-19T03:44:10.622Z,50.36
2023-04-19T03:46:38.294Z,50.38
2023-04-19T03:49:05.540Z,50.38
2023-04-19T03:51:32.866Z,50.76
2023-04-19T03:54:00.455Z,51.00
2023-04-19T03:56:27.612Z,50.77
2023-04-19T03:58:54.818Z,50.83
2023-04-19T04:01:22.868Z,51.11
2023-04-19T04:03:50.419Z,50.93
2023-04-19T04:06:17.910Z,51.16
2023-04-19T04:08:45.649Z,51.11
2023-04-19T04:11:12.841Z,51.28
2023-04-19T04:13:39.945Z,51.51
2023-04-19T04:16:07.260Z,51.42
2023-04-19T04:18:34.389Z,51.69
2023-04-19T04:21:01.862Z,51.42
2023-04-19T04:23:29.236Z,51.91
2023-04-19T04:26:01.285Z,51.85
2023-04-19T04:28:28.847Z,51.91
2023-04-19T04:30:57.557Z,51.95
2023-04-19T04:33:26.579Z,52.28
2023-04-19T04:35:56.493Z,52.02
2023-04-19T04:38:25.256Z,51.89
2023-04-19T04:40:55.590Z,52.11
2023-04-19T04:43:25.462Z,52.27
2023-04-19T04:45:52.687Z,52.38
2023-04-19T04:48:19.959Z,52.30
2023-04-19T04:50:47.137Z,52.49
2023-04-19T04:53:14.360Z,52.43
2023-04-19T04:55:42.114Z,52.34
2023-04-19T04:58:09.533Z,52.73
2023-04-19T05:00:36.682Z,52.67
2023-04-19T05:03:04.124Z,52.68
2023-04-19T05:05:31.459Z,52.65
2023-04-19T05:07:58.636Z,52.53
2023-04-19T05:10:25.904Z,52.46
2023-04-19T05:12:53.070Z,52.36
2023-04-19T05:15:20.418Z,52.40
2023-04-19T05:17:48.158Z,52.24
2023-04-19T05:20:15.415Z,52.12
2023-04-19T05:22:42.716Z,52.23
2023-04-19T05:25:10.982Z,52.14
2023-04-19T05:27:38.286Z,52.20
2023-04-19T05:30:07.440Z,52.05
2023-04-19T05:32:34.759Z,52.12
2023-04-19T05:35:02.102Z,52.14
2023-04-19T05:37:29.299Z,52.51
2023-04-19T05:39:56.598Z,52.17
2023-04-19T05:42:23.796Z,52.16
2023-04-19T05:44:51.397Z,51.87
2023-04-19T05:47:18.703Z,52.20
2023-04-19T05:49:45.878Z,51.83
2023-04-19T05:52:13.311Z,51.86
2023-04-19T05:54:40.544Z,52.11
2023-04-19T05:57:07.729Z,52.12
2023-04-19T05:59:34.962Z,52.34
2023-04-19T06:02:02.521Z,52.50
2023-04-19T06:04:30.025Z,52.50
2023-04-19T06:06:57.208Z,52.71
2023-04-19T06:09:24.400Z,52.62
2023-04-19T06:11:51.975Z,52.60
2023-04-19T06:14:19.612Z,52.83
2023-04-19T06:16:47.059Z,52.79
2023-04-19T06:19:14.529Z,52.93
2023-04-19T06:21:41.717Z,52.80
2023-04-19T06:24:09.073Z,52.80
2023-04-19T06:26:36.289Z,52.40
2023-04-19T06:29:03.952Z,52.39
2023-04-19T06:31:31.373Z,52.58
2023-04-19T06:33:58.549Z,52.49
2023-04-19T06:36:25.817Z,52.59
2023-04-19T06:38:52.925Z,52.25
2023-04-19T06:41:20.090Z,52.21
2023-04-19T06:43:47.335Z,52.17
2023-04-19T06:46:14.618Z,52.27
2023-04-19T06:48:41.958Z,52.43
2023-04-19T06:51:09.175Z,52.10
2023-04-19T06:53:36.480Z,52.12
2023-04-19T06:56:05.410Z,51.82
2023-04-19T06:58:34.693Z,51.60
2023-04-19T07:01:05.540Z,51.07
2023-04-19T07:03:33.351Z,51.32
2023-04-19T07:06:00.802Z,51.55
2023-04-19T07:08:42.320Z,51.38
2023-04-19T07:11:16.171Z,51.20
2023-04-19T07:13:43.638Z,50.85
2023-04-19T07:16:10.923Z,50.78
2023-04-19T07:18:38.071Z,50.64
2023-04-19T07:21:05.343Z,50.36
2023-04-19T07:23:32.650Z,49.31
2023-04-19T07:25:59.825Z,49.29
2023-04-19T07:28:29.588Z,48.79
2023-04-19T07:30:57.776Z,48.67
2023-04-19T07:33:27.412Z,48.73
2023-04-19T07:35:55.548Z,48.81
2023-04-19T07:38:23.204Z,48.47
2023-04-19T07:40:51.159Z,48.42
2023-04-19T07:43:18.408Z,48.08
2023-04-19T07:45:46.223Z,47.50
2023-04-19T07:48:13.464Z,47.42
2023-04-19T07:50:40.782Z,47.20
2023-04-19T07:53:08.212Z,47.18
2023-04-19T07:55:35.510Z,47.36
2023-04-19T07:58:02.769Z,46.79
2023-04-19T08:00:30.038Z,46.81
2023-04-19T08:02:57.802Z,46.17
2023-04-19T08:05:25.090Z,45.54
2023-04-19T08:07:52.866Z,45.32
2023-04-19T08:10:22.204Z,45.35
2023-04-19T08:13:04.415Z,45.11
2023-04-19T08:18:05.867Z,43.74
2023-04-19T08:20:33.943Z,43.70
2023-04-19T08:23:10.351Z,43.36
2023-04-19T08:25:41.735Z,42.44
2023-04-19T08:28:09.034Z,42.54
2023-04-19T08:30:36.501Z,41.94
2023-04-19T08:33:03.811Z,41.40
2023-04-19T08:35:31.058Z,41.32
2023-04-19T08:37:58.259Z,40.83
2023-04-19T08:40:25.680Z,40.43
2023-04-19T08:42:52.893Z,39.97
2023-04-19T08:45:28.226Z,39.46
2023-04-19T08:48:01.884Z,38.91
2023-04-19T08:50:35.825Z,38.85
2023-04-19T08:55:59.162Z,37.23
2023-04-19T08:58:45.675Z,38.08
2023-04-19T09:04:01.316Z,37.77
2023-04-19T09:06:41.647Z,37.72
2023-04-19T09:11:57.628Z,37.48
2023-04-19T09:14:28.739Z,37.92
2023-04-19T09:17:13.254Z,37.70
2023-04-19T09:19:48.728Z,37.47
2023-04-19T09:22:16.474Z,36.73
2023-04-19T09:27:24.960Z,36.28
2023-04-19T09:30:00.887Z,36.68
2023-04-19T09:32:44.604Z,36.16
2023-04-19T09:35:11.776Z,35.86
2023-04-19T09:40:27.604Z,35.20
2023-04-19T09:45:30.555Z,33.72
2023-04-19T09:48:06.810Z,33.78
2023-04-19T09:50:46.278Z,34.27
2023-04-19T09:53:23.775Z,33.21
2023-04-19T09:56:00.545Z,33.48
2023-04-19T09:58:41.727Z,33.79
2023-04-19T10:01:19.045Z,33.43
2023-04-19T10:03:50.622Z,33.84
2023-04-19T10:08:54.058Z,33.22
2023-04-19T10:11:22.519Z,33.77
2023-04-19T10:13:56.374Z,33.82
2023-04-19T10:16:24.822Z,34.00
2023-04-19T10:18:53.542Z,33.62
2023-04-19T10:21:25.397Z,33.29
2023-04-19T10:23:53.409Z,33.52
2023-04-19T10:26:20.594Z,33.61
2023-04-19T10:28:48.701Z,33.48
2023-04-19T10:31:19.278Z,33.52
2023-04-19T10:33:48.406Z,33.16
2023-04-19T10:36:16.002Z,33.04
2023-04-19T10:38:49.993Z,33.62
2023-04-19T10:41:20.072Z,33.17
2023-04-19T10:43:57.520Z,32.76
2023-04-19T10:46:24.682Z,32.56
2023-04-19T10:49:01.981Z,32.18
2023-04-19T10:51:36.846Z,31.65
2023-04-19T10:54:10.071Z,31.60
2023-04-19T10:56:37.344Z,31.20
2023-04-19T10:59:04.437Z,30.65
2023-04-19T11:01:40.676Z,31.45
2023-04-19T11:04:10.595Z,31.34
2023-04-19T11:06:57.536Z,30.79
2023-04-19T11:09:37.842Z,30.77
2023-04-19T11:12:07.537Z,30.57
2023-04-19T11:14:59.807Z,30.39
2023-04-19T11:17:32.600Z,30.02
2023-04-19T11:20:11.060Z,30.23
2023-04-19T11:22:38.218Z,29.83
2023-04-19T11:25:19.725Z,29.75
2023-04-19T11:27:53.475Z,29.83
2023-04-19T11:30:28.716Z,29.85
2023-04-19T11:32:57.392Z,29.34
2023-04-19T11:35:28.431Z,28.77
2023-04-19T11:37:59.613Z,29.14
2023-04-19T11:40:27.214Z,28.93
2023-04-19T11:42:57.818Z,29.09
2023-04-19T11:45:38.096Z,29.61
2023-04-19T11:48:13.235Z,30.10
2023-04-19T11:50:45.029Z,30.14
2023-04-19T11:53:22.748Z,30.11
2023-04-19T11:55:53.349Z,30.11
2023-04-19T11:58:57.901Z,29.60
2023-04-19T12:01:25.187Z,31.55
2023-04-19T12:03:55.122Z,31.32
2023-04-19T12:06:29.541Z,31.45
2023-04-19T12:08:57.734Z,31.57
2023-04-19T12:11:42.100Z,31.43
2023-04-19T12:14:13.678Z,31.66
2023-04-19T12:16:42.304Z,31.43
2023-04-19T12:19:20.029Z,30.81
2023-04-19T12:21:47.918Z,31.22
2023-04-19T12:24:18.163Z,31.98
2023-04-19T12:27:04.608Z,31.73
2023-04-19T12:29:32.477Z,31.22
2023-04-19T12:32:00.606Z,31.37
2023-04-19T12:34:28.438Z,31.73
2023-04-19T12:36:56.408Z,31.45
2023-04-19T12:39:24.202Z,31.17
2023-04-19T12:41:51.398Z,31.23
2023-04-19T12:44:18.629Z,31.62
2023-04-19T12:46:46.099Z,31.60
2023-04-19T12:49:13.199Z,31.08
2023-04-19T12:51:40.394Z,31.00
2023-04-19T12:54:07.612Z,30.86
2023-04-19T12:56:37.606Z,31.30
2023-04-19T12:59:04.825Z,31.28
2023-04-19T13:01:33.219Z,31.20
2023-04-19T13:04:00.732Z,30.77
2023-04-19T13:06:28.055Z,31.51
2023-04-19T13:08:55.370Z,30.69
2023-04-19T13:11:27.537Z,30.59
2023-04-19T13:13:54.728Z,30.63
2023-04-19T13:16:22.624Z,30.31
2023-04-19T13:18:50.500Z,30.73
2023-04-19T13:21:18.139Z,30.43
2023-04-19T13:23:45.336Z,29.62
2023-04-19T13:26:12.843Z,30.21
2023-04-19T13:28:42.497Z,30.40
2023-04-19T13:31:09.818Z,30.27
2023-04-19T13:33:37.358Z,30.75
2023-04-19T13:36:04.961Z,30.34
2023-04-19T13:38:32.195Z,30.43
2023-04-19T13:41:00.637Z,30.59
2023-04-19T13:43:27.838Z,30.40
2023-04-19T13:45:55.107Z,30.37
2023-04-19T13:48:22.313Z,30.36
2023-04-19T13:50:51.046Z,30.68
2023-04-19T13:53:18.540Z,30.03
2023-04-19T13:55:45.824Z,30.52
2023-04-19T13:58:13.305Z,30.26
2023-04-19T14:00:40.701Z,29.77
2023-04-19T14:03:08.167Z,29.83
2023-04-19T14:05:36.184Z,30.02
2023-04-19T14:08:04.275Z,30.18
2023-04-19T14:10:31.854Z,30.82
2023-04-19T14:12:59.021Z,30.01
2023-04-19T14:15:26.271Z,29.38
2023-04-19T14:17:53.591Z,29.47
2023-04-19T14:20:21.186Z,29.48
2023-04-19T14:22:49.470Z,29.67
2023-04-19T14:25:16.808Z,28.75
2023-04-19T14:27:47.752Z,28.96
2023-04-19T14:30:15.607Z,28.82
2023-04-19T14:32:43.011Z,28.54
2023-04-19T14:35:10.697Z,28.68
2023-04-19T14:37:38.589Z,29.39
2023-04-19T14:40:09.845Z,29.21
2023-04-19T14:42:41.099Z,28.83
2023-04-19T14:45:12.069Z,28.62
2023-04-19T14:47:40.967Z,28.68
2023-04-19T14:50:08.858Z,29.31
2023-04-19T14:52:37.175Z,29.25
2023-04-19T14:55:04.909Z,29.74
2023-04-19T14:57:32.109Z,29.87
2023-04-19T14:59:59.368Z,29.67
2023-04-19T15:02:27.748Z,29.27
2023-04-19T15:04:55.803Z,29.72
2023-04-19T15:07:23.253Z,29.86
2023-04-19T15:09:50.379Z,29.59
2023-04-19T15:12:17.717Z,29.58
2023-04-19T15:14:45.270Z,29.44
2023-04-19T15:17:12.411Z,29.41
2023-04-19T15:19:39.633Z,29.87
2023-04-19T15:22:06.849Z,29.54
2023-04-19T15:24:37.179Z,30.02
2023-04-19T15:27:04.469Z,29.82
2023-04-19T15:29:31.892Z,30.32
2023-04-19T15:31:59.007Z,30.39
2023-04-19T15:34:26.220Z,30.41
2023-04-19T15:36:53.706Z,30.27
2023-04-19T15:39:21.017Z,30.35
2023-04-19T15:41:48.193Z,30.24
2023-04-19T15:44:15.372Z,30.36
2023-04-19T15:46:42.990Z,30.36
2023-04-19T15:49:12.520Z,31.05
2023-04-19T15:51:39.848Z,31.08
2023-04-19T15:54:07.078Z,31.32
2023-04-19T15:56:34.318Z,31.83
2023-04-19T15:59:01.495Z,31.76
2023-04-19T16:01:28.660Z,31.28
2023-04-19T16:03:56.059Z,30.95
2023-04-19T16:06:23.401Z,31.33
2023-04-19T16:08:50.906Z,31.24
2023-04-19T16:11:18.107Z,31.17
2023-04-19T16:13:45.326Z,31.34
2023-04-19T16:16:15.216Z,31.68
2023-04-19T16:18:42.394Z,32.05
2023-04-19T16:21:09.518Z,31.97
2023-04-19T16:23:37.947Z,32.13
2023-04-19T16:26:05.181Z,31.74
2023-04-19T16:28:32.458Z,32.04
2023-04-19T16:30:59.721Z,31.63
2023-04-19T16:33:28.230Z,31.65
2023-04-19T16:35:55.455Z,31.78
2023-04-19T16:38:22.620Z,32.07
2023-04-19T16:40:49.979Z,32.10
2023-04-19T16:43:17.145Z,31.97
2023-04-19T16:45:44.760Z,32.24
2023-04-19T16:48:13.065Z,32.45
2023-04-19T16:50:40.885Z,32.47
2023-04-19T16:53:08.605Z,32.24
2023-04-19T16:55:37.202Z,32.26
2023-04-19T16:58:05.117Z,32.27
2023-04-19T17:00:32.427Z,32.43
2023-04-19T17:03:00.401Z,32.85
2023-04-19T17:05:27.957Z,32.34
2023-04-19T17:07:56.891Z,32.58
2023-04-19T17:10:26.921Z,32.73
2023-04-19T17:12:54.293Z,33.03
2023-04-19T17:15:21.759Z,33.31
2023-04-19T17:17:49.242Z,33.20
2023-04-19T17:20:16.560Z,33.06
2023-04-19T17:22:44.034Z,33.39
2023-04-19T17:25:11.228Z,33.65
2023-04-19T17:27:38.640Z,33.73
2023-04-19T17:30:07.573Z,34.43
2023-04-19T17:32:35.738Z,35.31
2023-04-19T17:35:04.751Z,36.16
2023-04-19T17:37:31.923Z,37.55
2023-04-19T17:39:59.888Z,37.83
2023-04-19T17:42:27.748Z,38.02
2023-04-19T17:44:55.448Z,37.96
2023-04-19T17:47:22.629Z,38.54
2023-04-19T17:49:50.490Z,39.19
2023-04-19T17:52:18.166Z,39.17
2023-04-19T17:54:45.453Z,39.36
2023-04-19T17:57:12.653Z,39.85
2023-04-19T17:59:40.724Z,40.20
2023-04-19T18:02:09.706Z,40.50
2023-04-19T18:04:38.119Z,40.63
2023-04-19T18:07:05.827Z,40.61
2023-04-19T18:09:33.498Z,40.94
2023-04-19T18:12:00.899Z,41.01
2023-04-19T18:14:28.712Z,41.01
2023-04-19T18:16:55.937Z,41.03
2023-04-19T18:19:23.087Z,41.38
2023-04-19T18:21:50.310Z,41.13
2023-04-19T18:24:17.593Z,41.29
2023-04-19T18:26:45.508Z,41.42
2023-04-19T18:29:13.079Z,41.00
2023-04-19T18:31:40.275Z,41.09
2023-04-19T18:34:07.455Z,41.13
2023-04-19T18:36:35.457Z,41.22
2023-04-19T18:39:03.293Z,41.57
2023-04-19T18:41:30.899Z,41.87
2023-04-19T18:46:30.036Z,41.49
2023-04-19T18:48:57.653Z,41.20
2023-04-19T18:51:24.812Z,41.14
2023-04-19T18:53:52.269Z,41.63
2023-04-19T18:56:19.660Z,41.71
2023-04-19T18:58:46.821Z,42.05
2023-04-19T19:01:14.629Z,41.96
2023-04-19T19:06:12.772Z,42.18
2023-04-19T19:08:40.189Z,42.54
2023-04-19T19:11:32.879Z,42.76
2023-04-19T19:13:55.010Z,42.93
2023-04-19T19:16:22.519Z,43.07
2023-04-19T19:18:50.449Z,43.55
2023-04-19T19:21:17.865Z,43.55
2023-04-19T19:23:45.981Z,43.51
2023-04-19T19:26:14.757Z,43.60
2023-04-19T19:28:43.018Z,43.98
2023-04-19T19:31:11.173Z,44.05
2023-04-19T19:33:40.653Z,44.32
2023-04-19T19:36:09.390Z,44.33
2023-04-19T19:38:37.835Z,44.61
2023-04-19T19:43:37.801Z,44.83
2023-04-19T19:46:05.877Z,44.93
2023-04-19T19:48:40.721Z,44.94
2023-04-19T19:53:41.746Z,45.56
2023-04-19T19:56:18.358Z,45.35
2023-04-19T19:58:51.672Z,45.56
2023-04-19T20:01:22.656Z,45.69
2023-04-19T20:03:50.891Z,45.53
2023-04-19T20:07:07.596Z,45.63
2023-04-19T20:09:06.433Z,45.71
2023-04-19T20:11:34.456Z,45.80
2023-04-19T20:14:02.472Z,46.15
2023-04-19T20:16:31.255Z,45.96
2023-04-19T20:18:59.428Z,46.11
2023-04-19T20:21:27.135Z,46.29
2023-04-19T20:23:55.265Z,46.32
2023-04-19T20:26:23.933Z,46.46
2023-04-19T20:28:53.317Z,46.81
2023-04-19T20:31:23.757Z,46.83
2023-04-19T20:33:53.521Z,46.85
2023-04-19T20:36:21.705Z,46.71
2023-04-19T20:38:51.843Z,46.96
2023-04-19T20:41:19.767Z,47.06
2023-04-19T20:43:46.889Z,47.30
2023-04-19T20:46:14.114Z,47.26
2023-04-19T20:48:42.216Z,47.65
2023-04-19T20:51:10.889Z,47.22
2023-04-19T20:53:40.716Z,47.68
2023-04-19T20:56:07.888Z,47.83
2023-04-19T20:58:35.089Z,47.55
2023-04-19T21:01:02.612Z,47.77
2023-04-19T21:03:30.592Z,47.67
2023-04-19T21:05:58.171Z,47.72
2023-04-19T21:08:25.496Z,47.48
2023-04-19T21:10:53.821Z,47.86
2023-04-19T21:13:20.959Z,48.00
2023-04-19T21:15:48.114Z,48.09
2023-04-19T21:18:15.392Z,48.38
2023-04-19T21:20:42.567Z,48.51
2023-04-19T21:23:09.721Z,48.90
2023-04-19T21:25:37.044Z,48.70
2023-04-19T21:28:04.160Z,48.45
2023-04-19T21:30:31.528Z,48.72
2023-04-19T21:32:58.752Z,48.96
2023-04-19T21:35:25.905Z,48.84
2023-04-19T21:37:53.655Z,48.94
2023-04-19T21:40:20.973Z,49.04
2023-04-19T21:42:48.161Z,49.11
2023-04-19T21:45:15.260Z,49.08
2023-04-19T21:47:42.494Z,49.22
2023-04-19T21:50:10.445Z,49.13
2023-04-19T21:52:38.547Z,48.95
2023-04-19T21:55:06.774Z,48.93
2023-04-19T21:57:34.225Z,48.73
2023-04-19T22:00:01.365Z,48.97
2023-04-19T22:02:28.703Z,48.76
2023-04-19T22:04:56.050Z,48.82
2023-04-19T22:07:23.201Z,48.81
2023-04-19T22:09:50.821Z,48.86
2023-04-19T22:12:18.018Z,48.85
2023-04-19T22:14:45.620Z,48.92
2023-04-19T22:17:12.928Z,48.92
2023-04-19T22:19:40.450Z,48.99
2023-04-19T22:22:07.665Z,48.71
2023-04-19T22:24:41.261Z,48.64
2023-04-19T22:27:14.242Z,48.96
2023-04-19T22:29:41.746Z,49.31
2023-04-19T22:32:09.050Z,49.36
2023-04-19T22:34:36.543Z,49.51
2023-04-19T22:37:03.771Z,49.48
2023-04-19T22:39:30.927Z,49.60
2023-04-19T22:41:58.279Z,49.64
2023-04-19T22:44:25.473Z,49.80
2023-04-19T22:46:52.688Z,49.79
2023-04-19T22:49:19.914Z,49.75
2023-04-19T22:51:47.114Z,50.37
2023-04-19T22:54:14.276Z,50.49
2023-04-19T22:56:41.423Z,50.77
2023-04-19T22:59:08.671Z,50.98
2023-04-19T23:01:36.276Z,51.41
2023-04-19T23:04:03.461Z,51.76
2023-04-19T23:06:30.759Z,52.05
2023-04-19T23:08:58.022Z,52.41
2023-04-19T23:11:25.246Z,52.52
2023-04-19T23:13:52.757Z,52.56
2023-04-19T23:16:20.018Z,53.35
2023-04-19T23:18:47.332Z,52.96
2023-04-19T23:21:14.533Z,53.00
2023-04-19T23:23:42.463Z,52.99
2023-04-19T23:26:10.181Z,52.92
2023-04-19T23:28:37.766Z,53.08
2023-04-19T23:31:05.509Z,53.19
2023-04-19T23:33:32.893Z,52.66
2023-04-19T23:36:00.263Z,53.00
2023-04-19T23:38:27.773Z,53.14
2023-04-19T23:40:55.271Z,52.93
2023-04-19T23:43:22.645Z,53.20
2023-04-19T23:45:49.814Z,53.13
2023-04-19T23:48:16.997Z,52.92
2023-04-19T23:50:44.235Z,52.68
2023-04-19T23:53:11.901Z,52.87
2023-04-19T23:55:39.035Z,52.84
2023-04-19T23:58:06.334Z,52.64
